sensor_id;sensor_type;location;lat;lon;timestamp;pressure;altitude;pressure_sealevel;temperature;humidity
54512;BME280;40419;47.438;19.026;2023-06-19T00:02:07;99772.22;;;17.68;87.94
54512;BME280;40419;47.438;19.026;2023-06-19T00:04:37;99772.00;;;17.53;89.42
54512;BME280;40419;47.438;19.026;2023-06-19T00:07:05;99773.47;;;17.61;90.21
54512;BME280;40419;47.438;19.026;2023-06-19T00:09:32;99766.63;;;17.41;92.04
54512;BME280;40419;47.438;19.026;2023-06-19T00:11:58;99771.56;;;17.61;89.95
54512;BME280;40419;47.438;19.026;2023-06-19T00:14:28;99770.09;;;17.53;89.58
54512;BME280;40419;47.438;19.026;2023-06-19T00:16:53;99769.06;;;17.60;87.66
54512;BME280;40419;47.438;19.026;2023-06-19T00:19:24;99775.47;;;17.65;87.87
54512;BME280;40419;47.438;19.026;2023-06-19T00:21:51;99767.22;;;17.82;87.42
54512;BME280;40419;47.438;19.026;2023-06-19T00:24:22;99766.44;;;17.87;86.08
54512;BME280;40419;47.438;19.026;2023-06-19T00:26:48;99767.69;;;17.96;85.20
54512;BME280;40419;47.438;19.026;2023-06-19T00:29:16;99770.03;;;17.87;86.87
54512;BME280;40419;47.438;19.026;2023-06-19T00:31:44;99764.72;;;17.81;87.30
54512;BME280;40419;47.438;19.026;2023-06-19T00:34:12;99768.22;;;17.76;88.84
54512;BME280;40419;47.438;19.026;2023-06-19T00:36:40;99767.75;;;17.62;90.13
54512;BME280;40419;47.438;19.026;2023-06-19T00:39:10;99773.16;;;17.40;90.91
54512;BME280;40419;47.438;19.026;2023-06-19T00:41:39;99762.81;;;17.42;90.53
54512;BME280;40419;47.438;19.026;2023-06-19T00:44:05;99770.91;;;17.54;90.51
54512;BME280;40419;47.438;19.026;2023-06-19T00:46:35;99771.41;;;17.51;90.49
54512;BME280;40419;47.438;19.026;2023-06-19T00:49:08;99773.75;;;17.59;88.48
54512;BME280;40419;47.438;19.026;2023-06-19T00:51:37;99766.91;;;17.62;89.44
54512;BME280;40419;47.438;19.026;2023-06-19T00:54:07;99780.13;;;17.65;88.77
54512;BME280;40419;47.438;19.026;2023-06-19T00:56:37;99771.06;;;17.64;88.91
54512;BME280;40419;47.438;19.026;2023-06-19T00:59:06;99771.66;;;17.66;88.52
54512;BME280;40419;47.438;19.026;2023-06-19T01:01:33;99772.47;;;17.67;87.91
54512;BME280;40419;47.438;19.026;2023-06-19T01:04:01;99766.19;;;17.66;87.58
54512;BME280;40419;47.438;19.026;2023-06-19T01:06:37;99758.78;;;17.67;87.18
54512;BME280;40419;47.438;19.026;2023-06-19T01:09:13;99766.09;;;17.61;88.10
54512;BME280;40419;47.438;19.026;2023-06-19T01:11:52;99757.31;;;17.59;89.87
54512;BME280;40419;47.438;19.026;2023-06-19T01:14:31;99757.81;;;17.56;89.64
54512;BME280;40419;47.438;19.026;2023-06-19T01:17:02;99761.69;;;17.60;88.56
54512;BME280;40419;47.438;19.026;2023-06-19T01:19:30;99753.34;;;17.50;90.41
54512;BME280;40419;47.438;19.026;2023-06-19T01:22:04;99762.69;;;17.54;89.68
54512;BME280;40419;47.438;19.026;2023-06-19T01:24:29;99754.41;;;17.49;90.64
54512;BME280;40419;47.438;19.026;2023-06-19T01:27:03;99750.88;;;17.48;91.28
54512;BME280;40419;47.438;19.026;2023-06-19T01:29:31;99756.34;;;17.48;91.32
54512;BME280;40419;47.438;19.026;2023-06-19T01:32:06;99755.50;;;17.48;90.69
54512;BME280;40419;47.438;19.026;2023-06-19T01:34:37;99753.91;;;17.52;89.81
54512;BME280;40419;47.438;19.026;2023-06-19T01:37:04;99744.88;;;17.51;90.03
54512;BME280;40419;47.438;19.026;2023-06-19T01:39:32;99743.06;;;17.40;91.16
54512;BME280;40419;47.438;19.026;2023-06-19T01:42:04;99743.72;;;17.47;90.35
54512;BME280;40419;47.438;19.026;2023-06-19T01:44:35;99737.03;;;17.60;88.89
54512;BME280;40419;47.438;19.026;2023-06-19T01:47:13;99728.59;;;17.62;88.05
54512;BME280;40419;47.438;19.026;2023-06-19T01:49:47;99736.88;;;17.67;87.99
54512;BME280;40419;47.438;19.026;2023-06-19T01:52:13;99734.31;;;17.60;89.24
54512;BME280;40419;47.438;19.026;2023-06-19T01:54:43;99726.94;;;17.61;90.53
54512;BME280;40419;47.438;19.026;2023-06-19T01:57:08;99731.06;;;17.63;91.62
54512;BME280;40419;47.438;19.026;2023-06-19T01:59:35;99726.75;;;17.67;92.18
54512;BME280;40419;47.438;19.026;2023-06-19T02:02:01;99727.97;;;17.54;92.62
54512;BME280;40419;47.438;19.026;2023-06-19T02:04:31;99733.28;;;17.44;93.17
54512;BME280;40419;47.438;19.026;2023-06-19T02:06:56;99726.84;;;17.33;92.86
54512;BME280;40419;47.438;19.026;2023-06-19T02:09:24;99724.66;;;17.35;92.06
54512;BME280;40419;47.438;19.026;2023-06-19T02:11:55;99729.09;;;17.20;94.25
54512;BME280;40419;47.438;19.026;2023-06-19T02:14:20;99732.47;;;17.10;94.27
54512;BME280;40419;47.438;19.026;2023-06-19T02:16:48;99733.31;;;16.93;96.16
54512;BME280;40419;47.438;19.026;2023-06-19T02:19:17;99733.50;;;16.58;99.08
54512;BME280;40419;47.438;19.026;2023-06-19T02:21:50;99737.22;;;16.69;99.53
54512;BME280;40419;47.438;19.026;2023-06-19T02:24:24;99741.91;;;16.85;95.59
54512;BME280;40419;47.438;19.026;2023-06-19T02:26:55;99750.63;;;16.99;93.68
54512;BME280;40419;47.438;19.026;2023-06-19T02:29:23;99742.56;;;16.92;93.59
54512;BME280;40419;47.438;19.026;2023-06-19T02:31:48;99743.16;;;16.94;93.52
54512;BME280;40419;47.438;19.026;2023-06-19T02:34:16;99746.34;;;17.03;92.13
54512;BME280;40419;47.438;19.026;2023-06-19T02:36:45;99744.16;;;16.88;92.06
54512;BME280;40419;47.438;19.026;2023-06-19T02:39:17;99744.47;;;16.46;96.89
54512;BME280;40419;47.438;19.026;2023-06-19T02:41:46;99754.00;;;16.03;100.00
54512;BME280;40419;47.438;19.026;2023-06-19T02:44:12;99752.47;;;15.95;100.00
54512;BME280;40419;47.438;19.026;2023-06-19T02:46:39;99753.56;;;16.23;100.00
54512;BME280;40419;47.438;19.026;2023-06-19T02:49:07;99744.25;;;16.07;100.00
54512;BME280;40419;47.438;19.026;2023-06-19T02:51:37;99743.72;;;15.81;100.00
54512;BME280;40419;47.438;19.026;2023-06-19T02:54:03;99741.31;;;15.73;100.00
54512;BME280;40419;47.438;19.026;2023-06-19T02:56:31;99745.69;;;16.09;100.00
54512;BME280;40419;47.438;19.026;2023-06-19T02:58:57;99753.69;;;16.57;99.70
54512;BME280;40419;47.438;19.026;2023-06-19T03:01:23;99747.88;;;17.16;92.57
54512;BME280;40419;47.438;19.026;2023-06-19T03:03:51;99757.50;;;17.35;91.50
54512;BME280;40419;47.438;19.026;2023-06-19T03:06:18;99758.84;;;16.99;95.40
54512;BME280;40419;47.438;19.026;2023-06-19T03:08:44;99763.34;;;16.76;97.24
54512;BME280;40419;47.438;19.026;2023-06-19T03:11:12;99769.59;;;16.89;97.17
54512;BME280;40419;47.438;19.026;2023-06-19T03:13:47;99765.94;;;17.51;91.33
54512;BME280;40419;47.438;19.026;2023-06-19T03:16:12;99764.22;;;17.28;91.24
54512;BME280;40419;47.438;19.026;2023-06-19T03:18:41;99778.22;;;16.97;93.92
54512;BME280;40419;47.438;19.026;2023-06-19T03:21:15;99776.06;;;17.50;91.81
54512;BME280;40419;47.438;19.026;2023-06-19T03:23:45;99780.34;;;17.63;89.37
54512;BME280;40419;47.438;19.026;2023-06-19T03:26:20;99783.31;;;18.18;85.98
54512;BME280;40419;47.438;19.026;2023-06-19T03:28:47;99784.47;;;18.71;82.96
54512;BME280;40419;47.438;19.026;2023-06-19T03:31:18;99781.44;;;18.46;86.71
54512;BME280;40419;47.438;19.026;2023-06-19T03:33:51;99785.59;;;18.26;89.62
54512;BME280;40419;47.438;19.026;2023-06-19T03:36:26;99786.81;;;18.13;89.42
54512;BME280;40419;47.438;19.026;2023-06-19T03:38:53;99782.34;;;18.07;87.90
54512;BME280;40419;47.438;19.026;2023-06-19T03:41:24;99776.81;;;18.02;88.95
54512;BME280;40419;47.438;19.026;2023-06-19T03:43:56;99773.00;;;17.86;89.90
54512;BME280;40419;47.438;19.026;2023-06-19T03:46:25;99775.53;;;17.70;91.04
54512;BME280;40419;47.438;19.026;2023-06-19T03:48:53;99774.50;;;17.77;91.71
54512;BME280;40419;47.438;19.026;2023-06-19T03:51:19;99778.78;;;17.67;94.25
54512;BME280;40419;47.438;19.026;2023-06-19T03:53:47;99771.63;;;17.83;93.41
54512;BME280;40419;47.438;19.026;2023-06-19T03:56:18;99775.47;;;17.65;94.06
54512;BME280;40419;47.438;19.026;2023-06-19T03:58:44;99778.63;;;17.57;96.14
54512;BME280;40419;47.438;19.026;2023-06-19T04:01:11;99775.38;;;17.60;96.57
54512;BME280;40419;47.438;19.026;2023-06-19T04:03:39;99772.72;;;17.65;95.98
54512;BME280;40419;47.438;19.026;2023-06-19T04:06:05;99777.53;;;17.58;96.30
54512;BME280;40419;47.438;19.026;2023-06-19T04:08:33;99775.88;;;17.57;93.55
54512;BME280;40419;47.438;19.026;2023-06-19T04:10:59;99774.81;;;17.58;94.56
54512;BME280;40419;47.438;19.026;2023-06-19T04:13:27;99780.53;;;17.57;93.98
54512;BME280;40419;47.438;19.026;2023-06-19T04:15:55;99772.19;;;17.85;95.41
54512;BME280;40419;47.438;19.026;2023-06-19T04:18:20;99778.53;;;18.08;93.92
54512;BME280;40419;47.438;19.026;2023-06-19T04:20:48;99774.59;;;18.21;92.23
54512;BME280;40419;47.438;19.026;2023-06-19T04:23:18;99777.13;;;18.28;92.69
54512;BME280;40419;47.438;19.026;2023-06-19T04:25:49;99781.59;;;18.12;93.99
54512;BME280;40419;47.438;19.026;2023-06-19T04:28:16;99776.38;;;18.10;92.71
54512;BME280;40419;47.438;19.026;2023-06-19T04:30:49;99779.25;;;17.98;91.33
54512;BME280;40419;47.438;19.026;2023-06-19T04:33:30;99779.81;;;18.00;93.51
54512;BME280;40419;47.438;19.026;2023-06-19T04:35:57;99782.84;;;18.48;93.24
54512;BME280;40419;47.438;19.026;2023-06-19T04:38:23;99786.41;;;18.49;90.18
54512;BME280;40419;47.438;19.026;2023-06-19T04:40:52;99778.69;;;18.46;90.25
54512;BME280;40419;47.438;19.026;2023-06-19T04:43:20;99785.78;;;18.41;90.41
54512;BME280;40419;47.438;19.026;2023-06-19T04:45:46;99792.78;;;18.54;92.04
54512;BME280;40419;47.438;19.026;2023-06-19T04:48:11;99792.16;;;18.47;92.60
54512;BME280;40419;47.438;19.026;2023-06-19T04:50:39;99787.31;;;18.32;93.57
54512;BME280;40419;47.438;19.026;2023-06-19T04:53:07;99794.50;;;18.38;93.06
54512;BME280;40419;47.438;19.026;2023-06-19T04:55:32;99787.41;;;18.65;91.88
54512;BME280;40419;47.438;19.026;2023-06-19T04:58:02;99793.59;;;18.82;93.41
54512;BME280;40419;47.438;19.026;2023-06-19T05:00:28;99800.78;;;18.61;92.72
54512;BME280;40419;47.438;19.026;2023-06-19T05:02:58;99794.25;;;18.89;93.33
54512;BME280;40419;47.438;19.026;2023-06-19T05:05:31;99806.00;;;18.85;94.46
54512;BME280;40419;47.438;19.026;2023-06-19T05:07:57;99791.88;;;18.98;91.94
54512;BME280;40419;47.438;19.026;2023-06-19T05:10:25;99800.47;;;19.39;91.86
54512;BME280;40419;47.438;19.026;2023-06-19T05:12:50;99808.13;;;19.37;89.94
54512;BME280;40419;47.438;19.026;2023-06-19T05:15:18;99811.66;;;19.33;91.72
54512;BME280;40419;47.438;19.026;2023-06-19T05:17:46;99809.97;;;19.26;94.08
54512;BME280;40419;47.438;19.026;2023-06-19T05:20:14;99824.09;;;19.40;89.66
54512;BME280;40419;47.438;19.026;2023-06-19T05:22:42;99814.94;;;19.29;90.05
54512;BME280;40419;47.438;19.026;2023-06-19T05:25:08;99820.91;;;19.54;89.13
54512;BME280;40419;47.438;19.026;2023-06-19T05:27:34;99825.34;;;19.65;89.04
54512;BME280;40419;47.438;19.026;2023-06-19T05:29:59;99821.94;;;19.47;89.78
54512;BME280;40419;47.438;19.026;2023-06-19T05:32:25;99823.59;;;19.81;88.30
54512;BME280;40419;47.438;19.026;2023-06-19T05:34:52;99825.09;;;20.09;87.70
54512;BME280;40419;47.438;19.026;2023-06-19T05:37:18;99813.81;;;20.06;78.78
54512;BME280;40419;47.438;19.026;2023-06-19T05:39:46;99827.44;;;19.85;84.75
54512;BME280;40419;47.438;19.026;2023-06-19T05:42:16;99824.06;;;20.26;81.85
54512;BME280;40419;47.438;19.026;2023-06-19T05:44:42;99822.28;;;20.52;77.86
54512;BME280;40419;47.438;19.026;2023-06-19T05:47:09;99816.16;;;20.34;79.17
54512;BME280;40419;47.438;19.026;2023-06-19T05:49:37;99813.94;;;20.31;80.14
54512;BME280;40419;47.438;19.026;2023-06-19T05:52:06;99825.53;;;20.39;82.07
54512;BME280;40419;47.438;19.026;2023-06-19T05:54:36;99830.53;;;20.57;79.10
54512;BME280;40419;47.438;19.026;2023-06-19T05:57:07;99830.97;;;20.28;80.16
54512;BME280;40419;47.438;19.026;2023-06-19T05:59:36;99827.97;;;20.35;78.68
54512;BME280;40419;47.438;19.026;2023-06-19T06:02:02;99836.16;;;20.19;80.94
54512;BME280;40419;47.438;19.026;2023-06-19T06:04:34;99839.97;;;20.71;82.30
54512;BME280;40419;47.438;19.026;2023-06-19T06:07:05;99829.25;;;20.80;79.34
54512;BME280;40419;47.438;19.026;2023-06-19T06:09:30;99835.88;;;20.84;77.71
54512;BME280;40419;47.438;19.026;2023-06-19T06:11:56;99831.69;;;20.66;82.11
54512;BME280;40419;47.438;19.026;2023-06-19T06:14:24;99832.75;;;20.60;79.38
54512;BME280;40419;47.438;19.026;2023-06-19T06:16:52;99838.38;;;20.96;82.71
54512;BME280;40419;47.438;19.026;2023-06-19T06:19:21;99836.13;;;20.83;79.45
54512;BME280;40419;47.438;19.026;2023-06-19T06:21:52;99844.97;;;20.95;78.33
54512;BME280;40419;47.438;19.026;2023-06-19T06:24:23;99846.38;;;21.13;78.09
54512;BME280;40419;47.438;19.026;2023-06-19T06:26:50;99850.50;;;21.11;78.77
54512;BME280;40419;47.438;19.026;2023-06-19T06:29:16;99845.84;;;21.21;82.91
54512;BME280;40419;47.438;19.026;2023-06-19T06:31:46;99848.03;;;21.30;76.20
54512;BME280;40419;47.438;19.026;2023-06-19T06:34:20;99851.91;;;21.18;76.38
54512;BME280;40419;47.438;19.026;2023-06-19T06:36:45;99855.47;;;21.34;77.83
54512;BME280;40419;47.438;19.026;2023-06-19T06:39:11;99853.31;;;21.67;76.28
54512;BME280;40419;47.438;19.026;2023-06-19T06:41:36;99844.78;;;21.64;76.90
54512;BME280;40419;47.438;19.026;2023-06-19T06:44:05;99845.59;;;21.74;76.90
54512;BME280;40419;47.438;19.026;2023-06-19T06:46:33;99850.25;;;21.69;76.97
54512;BME280;40419;47.438;19.026;2023-06-19T06:49:01;99844.72;;;21.89;76.35
54512;BME280;40419;47.438;19.026;2023-06-19T06:51:26;99848.28;;;22.10;76.76
54512;BME280;40419;47.438;19.026;2023-06-19T06:53:57;99847.44;;;22.05;76.25
54512;BME280;40419;47.438;19.026;2023-06-19T06:56:25;99851.81;;;22.21;71.38
54512;BME280;40419;47.438;19.026;2023-06-19T06:58:52;99856.22;;;22.33;71.11
54512;BME280;40419;47.438;19.026;2023-06-19T07:01:21;99854.28;;;22.18;72.90
54512;BME280;40419;47.438;19.026;2023-06-19T07:03:49;99852.47;;;21.77;71.24
54512;BME280;40419;47.438;19.026;2023-06-19T07:06:16;99856.88;;;21.68;74.39
54512;BME280;40419;47.438;19.026;2023-06-19T07:08:45;99849.16;;;21.85;70.85
54512;BME280;40419;47.438;19.026;2023-06-19T07:11:13;99854.31;;;22.33;73.19
54512;BME280;40419;47.438;19.026;2023-06-19T07:13:38;99851.72;;;22.57;70.40
54512;BME280;40419;47.438;19.026;2023-06-19T07:16:07;99851.47;;;22.48;71.17
54512;BME280;40419;47.438;19.026;2023-06-19T07:18:35;99845.31;;;22.72;70.75
54512;BME280;40419;47.438;19.026;2023-06-19T07:21:11;99851.16;;;22.55;65.33
54512;BME280;40419;47.438;19.026;2023-06-19T07:23:41;99845.03;;;22.69;68.00
54512;BME280;40419;47.438;19.026;2023-06-19T07:26:10;99843.41;;;23.12;70.15
54512;BME280;40419;47.438;19.026;2023-06-19T07:28:35;99848.88;;;23.23;64.18
54512;BME280;40419;47.438;19.026;2023-06-19T07:31:03;99851.22;;;23.40;67.12
54512;BME280;40419;47.438;19.026;2023-06-19T07:33:31;99844.44;;;23.22;64.69
54512;BME280;40419;47.438;19.026;2023-06-19T07:36:00;99846.53;;;23.40;66.04
54512;BME280;40419;47.438;19.026;2023-06-19T07:38:33;99851.50;;;23.38;64.44
54512;BME280;40419;47.438;19.026;2023-06-19T07:40:58;99851.34;;;23.59;65.55
54512;BME280;40419;47.438;19.026;2023-06-19T07:43:24;99844.50;;;23.85;62.99
54512;BME280;40419;47.438;19.026;2023-06-19T07:45:53;99839.13;;;23.65;63.74
54512;BME280;40419;47.438;19.026;2023-06-19T07:48:19;99842.59;;;24.05;64.33
54512;BME280;40419;47.438;19.026;2023-06-19T07:50:49;99847.31;;;24.04;61.88
54512;BME280;40419;47.438;19.026;2023-06-19T07:53:14;99834.13;;;24.45;60.09
54512;BME280;40419;47.438;19.026;2023-06-19T07:55:41;99837.78;;;24.40;62.50
54512;BME280;40419;47.438;19.026;2023-06-19T07:58:11;99830.69;;;24.53;57.92
54512;BME280;40419;47.438;19.026;2023-06-19T08:00:41;99838.41;;;24.13;62.55
54512;BME280;40419;47.438;19.026;2023-06-19T08:03:09;99839.34;;;23.68;61.63
54512;BME280;40419;47.438;19.026;2023-06-19T08:05:34;99843.69;;;23.80;62.20
54512;BME280;40419;47.438;19.026;2023-06-19T08:08:05;99838.03;;;23.61;62.42
54512;BME280;40419;47.438;19.026;2023-06-19T08:10:33;99836.19;;;23.85;59.17
54512;BME280;40419;47.438;19.026;2023-06-19T08:12:59;99829.91;;;24.28;60.28
54512;BME280;40419;47.438;19.026;2023-06-19T08:15:24;99841.66;;;24.63;58.72
54512;BME280;40419;47.438;19.026;2023-06-19T08:17:52;99835.91;;;24.59;54.72
54512;BME280;40419;47.438;19.026;2023-06-19T08:20:20;99837.00;;;25.02;55.95
54512;BME280;40419;47.438;19.026;2023-06-19T08:22:51;99833.38;;;25.01;56.57
54512;BME280;40419;47.438;19.026;2023-06-19T08:25:18;99839.59;;;25.31;54.97
54512;BME280;40419;47.438;19.026;2023-06-19T08:27:47;99842.44;;;25.26;55.47
54512;BME280;40419;47.438;19.026;2023-06-19T08:30:17;99839.53;;;25.17;53.48
54512;BME280;40419;47.438;19.026;2023-06-19T08:32:46;99832.97;;;25.27;53.95
54512;BME280;40419;47.438;19.026;2023-06-19T08:35:16;99832.59;;;25.53;54.20
54512;BME280;40419;47.438;19.026;2023-06-19T08:37:42;99831.94;;;25.75;51.95
54512;BME280;40419;47.438;19.026;2023-06-19T08:40:08;99838.19;;;25.34;53.98
54512;BME280;40419;47.438;19.026;2023-06-19T08:42:36;99841.06;;;25.23;53.26
54512;BME280;40419;47.438;19.026;2023-06-19T08:45:04;99831.97;;;25.56;54.22
54512;BME280;40419;47.438;19.026;2023-06-19T08:47:31;99845.03;;;25.69;53.42
54512;BME280;40419;47.438;19.026;2023-06-19T08:49:59;99836.13;;;25.39;49.76
54512;BME280;40419;47.438;19.026;2023-06-19T08:52:25;99829.75;;;26.05;50.11
54512;BME280;40419;47.438;19.026;2023-06-19T08:54:53;99827.69;;;26.24;47.50
54512;BME280;40419;47.438;19.026;2023-06-19T08:57:20;99834.56;;;26.13;48.13
54512;BME280;40419;47.438;19.026;2023-06-19T08:59:52;99834.97;;;26.20;47.06
54512;BME280;40419;47.438;19.026;2023-06-19T09:02:20;99826.97;;;26.32;46.63
54512;BME280;40419;47.438;19.026;2023-06-19T09:04:46;99822.34;;;26.28;47.75
54512;BME280;40419;47.438;19.026;2023-06-19T09:07:12;99831.06;;;26.35;47.84
54512;BME280;40419;47.438;19.026;2023-06-19T09:09:45;99823.34;;;26.46;47.30
54512;BME280;40419;47.438;19.026;2023-06-19T09:12:15;99826.44;;;26.44;48.74
54512;BME280;40419;47.438;19.026;2023-06-19T09:14:52;99826.09;;;26.74;48.67
54512;BME280;40419;47.438;19.026;2023-06-19T09:17:22;99826.53;;;26.25;47.23
54512;BME280;40419;47.438;19.026;2023-06-19T09:19:54;99826.75;;;26.29;49.11
54512;BME280;40419;47.438;19.026;2023-06-19T09:22:22;99824.84;;;26.80;46.28
54512;BME280;40419;47.438;19.026;2023-06-19T09:24:49;99828.19;;;26.68;46.76
54512;BME280;40419;47.438;19.026;2023-06-19T09:27:16;99830.91;;;27.18;44.54
54512;BME280;40419;47.438;19.026;2023-06-19T09:29:47;99829.56;;;27.52;43.45
54512;BME280;40419;47.438;19.026;2023-06-19T09:32:26;99818.28;;;27.12;41.93
54512;BME280;40419;47.438;19.026;2023-06-19T09:34:58;99819.94;;;27.13;44.38
54512;BME280;40419;47.438;19.026;2023-06-19T09:37:30;99822.72;;;27.58;42.64
54512;BME280;40419;47.438;19.026;2023-06-19T09:42:32;99824.34;;;27.91;42.62
54512;BME280;40419;47.438;19.026;2023-06-19T09:45:03;99826.69;;;27.66;42.26
54512;BME280;40419;47.438;19.026;2023-06-19T09:50:06;99828.47;;;27.93;39.44
54512;BME280;40419;47.438;19.026;2023-06-19T09:52:32;99822.94;;;27.71;44.10
54512;BME280;40419;47.438;19.026;2023-06-19T09:55:05;99823.38;;;27.64;42.05
54512;BME280;40419;47.438;19.026;2023-06-19T09:57:35;99818.53;;;27.70;41.14
54512;BME280;40419;47.438;19.026;2023-06-19T10:00:06;99813.94;;;27.97;39.67
54512;BME280;40419;47.438;19.026;2023-06-19T10:02:46;99807.28;;;27.75;42.35
54512;BME280;40419;47.438;19.026;2023-06-19T10:05:14;99787.75;;;27.66;42.82
54512;BME280;40419;47.438;19.026;2023-06-19T10:07:45;99792.19;;;27.45;44.16
54512;BME280;40419;47.438;19.026;2023-06-19T10:10:22;99796.25;;;27.38;42.53
54512;BME280;40419;47.438;19.026;2023-06-19T10:12:57;99803.75;;;27.15;42.59
54512;BME280;40419;47.438;19.026;2023-06-19T10:15:27;99795.44;;;27.38;41.26
54512;BME280;40419;47.438;19.026;2023-06-19T10:18:04;99798.69;;;27.63;41.60
54512;BME280;40419;47.438;19.026;2023-06-19T10:20:36;99793.38;;;27.75;38.66
54512;BME280;40419;47.438;19.026;2023-06-19T10:23:07;99785.88;;;27.93;44.02
54512;BME280;40419;47.438;19.026;2023-06-19T10:25:54;99786.13;;;27.97;43.07
54512;BME280;40419;47.438;19.026;2023-06-19T10:28:24;99790.09;;;28.13;42.94
54512;BME280;40419;47.438;19.026;2023-06-19T10:33:27;99786.03;;;27.88;42.06
54512;BME280;40419;47.438;19.026;2023-06-19T10:35:58;99783.53;;;27.77;41.69
54512;BME280;40419;47.438;19.026;2023-06-19T10:38:25;99782.09;;;28.11;40.98
54512;BME280;40419;47.438;19.026;2023-06-19T10:40:56;99788.81;;;28.19;39.53
54512;BME280;40419;47.438;19.026;2023-06-19T10:43:23;99787.22;;;27.96;41.82
54512;BME280;40419;47.438;19.026;2023-06-19T10:45:57;99782.78;;;27.94;40.75
54512;BME280;40419;47.438;19.026;2023-06-19T10:48:26;99774.22;;;27.82;40.46
54512;BME280;40419;47.438;19.026;2023-06-19T10:50:56;99786.50;;;28.21;39.58
54512;BME280;40419;47.438;19.026;2023-06-19T10:53:32;99791.59;;;28.19;39.54
54512;BME280;40419;47.438;19.026;2023-06-19T10:56:00;99783.59;;;28.35;38.95
54512;BME280;40419;47.438;19.026;2023-06-19T10:58:30;99776.69;;;28.15;40.40
54512;BME280;40419;47.438;19.026;2023-06-19T11:00:56;99781.16;;;27.93;40.60
54512;BME280;40419;47.438;19.026;2023-06-19T11:03:24;99784.25;;;28.23;41.08
54512;BME280;40419;47.438;19.026;2023-06-19T11:05:50;99769.66;;;28.18;40.11
54512;BME280;40419;47.438;19.026;2023-06-19T11:08:23;99780.16;;;27.89;40.19
54512;BME280;40419;47.438;19.026;2023-06-19T11:10:51;99771.41;;;28.05;39.52
54512;BME280;40419;47.438;19.026;2023-06-19T11:13:20;99771.44;;;28.14;40.18
54512;BME280;40419;47.438;19.026;2023-06-19T11:15:49;99771.44;;;28.14;38.37
54512;BME280;40419;47.438;19.026;2023-06-19T11:18:20;99774.09;;;28.19;38.65
54512;BME280;40419;47.438;19.026;2023-06-19T11:20:49;99774.59;;;28.29;38.41
54512;BME280;40419;47.438;19.026;2023-06-19T11:23:26;99772.13;;;28.37;38.70
54512;BME280;40419;47.438;19.026;2023-06-19T11:25:54;99769.47;;;28.05;38.42
54512;BME280;40419;47.438;19.026;2023-06-19T11:28:22;99768.53;;;28.36;38.98
54512;BME280;40419;47.438;19.026;2023-06-19T11:30:57;99764.09;;;28.18;38.73
54512;BME280;40419;47.438;19.026;2023-06-19T11:33:25;99766.03;;;28.17;38.27
54512;BME280;40419;47.438;19.026;2023-06-19T11:35:54;99758.06;;;28.33;39.77
54512;BME280;40419;47.438;19.026;2023-06-19T11:38:26;99760.09;;;28.01;40.84
54512;BME280;40419;47.438;19.026;2023-06-19T11:40:56;99752.75;;;28.14;40.47
54512;BME280;40419;47.438;19.026;2023-06-19T11:43:30;99749.38;;;28.35;39.66
54512;BME280;40419;47.438;19.026;2023-06-19T11:46:04;99746.13;;;28.50;39.45
54512;BME280;40419;47.438;19.026;2023-06-19T11:48:30;99747.91;;;28.37;37.95
54512;BME280;40419;47.438;19.026;2023-06-19T11:50:59;99738.56;;;28.33;38.89
54512;BME280;40419;47.438;19.026;2023-06-19T11:53:29;99741.06;;;28.52;39.02
54512;BME280;40419;47.438;19.026;2023-06-19T11:55:59;99748.56;;;28.25;37.88
54512;BME280;40419;47.438;19.026;2023-06-19T11:58:29;99753.28;;;28.16;38.34
54512;BME280;40419;47.438;19.026;2023-06-19T12:01:00;99739.72;;;28.23;40.03
54512;BME280;40419;47.438;19.026;2023-06-19T12:03:30;99742.19;;;28.51;40.55
54512;BME280;40419;47.438;19.026;2023-06-19T12:05:55;99748.63;;;28.69;37.61
54512;BME280;40419;47.438;19.026;2023-06-19T12:08:23;99745.84;;;28.69;38.35
54512;BME280;40419;47.438;19.026;2023-06-19T12:10:48;99746.34;;;28.80;38.79
54512;BME280;40419;47.438;19.026;2023-06-19T12:13:14;99744.53;;;28.93;36.92
54512;BME280;40419;47.438;19.026;2023-06-19T12:15:43;99734.53;;;28.74;38.68
54512;BME280;40419;47.438;19.026;2023-06-19T12:18:09;99732.56;;;28.66;37.30
54512;BME280;40419;47.438;19.026;2023-06-19T12:20:39;99730.94;;;28.74;37.15
54512;BME280;40419;47.438;19.026;2023-06-19T12:23:08;99722.69;;;28.34;36.85
54512;BME280;40419;47.438;19.026;2023-06-19T12:25:33;99725.22;;;28.70;36.99
54512;BME280;40419;47.438;19.026;2023-06-19T12:28:01;99723.72;;;28.81;38.05
54512;BME280;40419;47.438;19.026;2023-06-19T12:30:36;99730.94;;;28.83;36.23
54512;BME280;40419;47.438;19.026;2023-06-19T12:33:03;99721.91;;;28.86;37.95
54512;BME280;40419;47.438;19.026;2023-06-19T12:35:34;99718.47;;;28.54;37.05
54512;BME280;40419;47.438;19.026;2023-06-19T12:38:04;99719.31;;;28.63;37.28
54512;BME280;40419;47.438;19.026;2023-06-19T12:40:32;99708.09;;;28.37;37.34
54512;BME280;40419;47.438;19.026;2023-06-19T12:42:58;99711.88;;;28.32;36.72
54512;BME280;40419;47.438;19.026;2023-06-19T12:45:26;99705.00;;;28.21;36.58
54512;BME280;40419;47.438;19.026;2023-06-19T12:47:51;99710.22;;;28.14;37.96
54512;BME280;40419;47.438;19.026;2023-06-19T12:50:19;99706.63;;;28.13;37.05
54512;BME280;40419;47.438;19.026;2023-06-19T12:52:45;99702.50;;;28.10;37.03
54512;BME280;40419;47.438;19.026;2023-06-19T12:55:12;99712.75;;;27.92;38.84
54512;BME280;40419;47.438;19.026;2023-06-19T12:57:38;99698.56;;;27.63;38.24
54512;BME280;40419;47.438;19.026;2023-06-19T13:00:13;99699.19;;;27.51;38.42
54512;BME280;40419;47.438;19.026;2023-06-19T13:02:41;99694.72;;;27.81;37.96
54512;BME280;40419;47.438;19.026;2023-06-19T13:05:11;99690.06;;;28.08;38.33
54512;BME280;40419;47.438;19.026;2023-06-19T13:07:39;99687.97;;;28.40;37.87